Empire, Colorado
Current Conditions -  °F | °C
As of 5:15 AM on Friday 28 Nov 2014 (Local Time) from KBDU Reporting Station
Clear Clear  
Wind Chill: 46°   Ceiling: Unl
Heat Index: 48°   Visibility: 10mi
Dew Point: 16°   Wind: 5mph
Humidity: 27%   Direction: 240°WSW
Pressure: 29.96"   Gusts: NA
Location:  39.76°N, 105.68°W
Report Text: KBDU 281215Z AUTO 24004KT 10SM CLR 09/M09 A2996 RMK AO2
Loading
Personal Weather Stations






























Interactive Weather Map New forecast layout! Learn more

10-Day Weather Forecast

Advertisements
Track Severe Weather on mobile